sensor_id;sensor_type;location;lat;lon;timestamp;pressure;altitude;pressure_sealevel;temperature;humidity
81196;BME280;70671;43.888;-79.394;2023-11-21T00:01:54;100652.72;;;-1.96;57.80
81196;BME280;70671;43.888;-79.394;2023-11-21T00:04:20;100639.53;;;-2.01;57.59
81196;BME280;70671;43.888;-79.394;2023-11-21T00:06:47;100631.81;;;-2.03;57.96
81196;BME280;70671;43.888;-79.394;2023-11-21T00:09:13;100616.69;;;-2.07;58.49
81196;BME280;70671;43.888;-79.394;2023-11-21T00:11:41;100614.13;;;-2.04;58.14
81196;BME280;70671;43.888;-79.394;2023-11-21T00:14:07;100613.81;;;-2.02;58.18
81196;BME280;70671;43.888;-79.394;2023-11-21T00:16:34;100615.72;;;-2.03;58.80
81196;BME280;70671;43.888;-79.394;2023-11-21T00:19:00;100615.41;;;-2.01;59.63
81196;BME280;70671;43.888;-79.394;2023-11-21T00:21:26;100614.75;;;-1.98;58.29
81196;BME280;70671;43.888;-79.394;2023-11-21T00:23:51;100609.91;;;-2.05;58.14
81196;BME280;70671;43.888;-79.394;2023-11-21T00:26:17;100614.13;;;-2.04;58.33
81196;BME280;70671;43.888;-79.394;2023-11-21T00:28:43;100617.16;;;-2.05;58.35
81196;BME280;70671;43.888;-79.394;2023-11-21T00:31:09;100612.25;;;-2.03;58.61
81196;BME280;70671;43.888;-79.394;2023-11-21T00:33:35;100602.50;;;-2.08;58.65
81196;BME280;70671;43.888;-79.394;2023-11-21T00:36:01;100614.63;;;-2.10;58.92
81196;BME280;70671;43.888;-79.394;2023-11-21T00:38:27;100625.22;;;-2.14;58.91
81196;BME280;70671;43.888;-79.394;2023-11-21T00:40:53;100621.94;;;-2.19;59.08
81196;BME280;70671;43.888;-79.394;2023-11-21T00:43:22;100617.38;;;-2.19;58.66
81196;BME280;70671;43.888;-79.394;2023-11-21T00:45:49;100626.19;;;-2.27;59.81
81196;BME280;70671;43.888;-79.394;2023-11-21T00:48:15;100624.66;;;-2.28;59.78
81196;BME280;70671;43.888;-79.394;2023-11-21T00:50:41;100618.50;;;-2.28;59.61
81196;BME280;70671;43.888;-79.394;2023-11-21T00:53:07;100610.00;;;-2.30;60.45
81196;BME280;70671;43.888;-79.394;2023-11-21T00:55:33;100607.97;;;-2.33;59.49
81196;BME280;70671;43.888;-79.394;2023-11-21T00:58:00;100606.72;;;-2.36;59.65
81196;BME280;70671;43.888;-79.394;2023-11-21T01:00:29;100606.97;;;-2.29;60.42
81196;BME280;70671;43.888;-79.394;2023-11-21T01:02:55;100609.06;;;-2.34;59.86
81196;BME280;70671;43.888;-79.394;2023-11-21T01:05:21;100606.59;;;-2.48;60.90
81196;BME280;70671;43.888;-79.394;2023-11-21T01:07:47;100600.28;;;-2.43;60.62
81196;BME280;70671;43.888;-79.394;2023-11-21T01:10:13;100593.66;;;-2.37;60.79
81196;BME280;70671;43.888;-79.394;2023-11-21T01:12:39;100590.03;;;-2.41;60.27
81196;BME280;70671;43.888;-79.394;2023-11-21T01:15:06;100592.88;;;-2.46;60.75
81196;BME280;70671;43.888;-79.394;2023-11-21T01:17:33;100587.97;;;-2.44;61.12
81196;BME280;70671;43.888;-79.394;2023-11-21T01:20:02;100587.06;;;-2.48;60.89
81196;BME280;70671;43.888;-79.394;2023-11-21T01:22:31;100584.56;;;-2.54;61.42
81196;BME280;70671;43.888;-79.394;2023-11-21T01:24:57;100590.84;;;-2.49;61.17
81196;BME280;70671;43.888;-79.394;2023-11-21T01:27:23;100585.66;;;-2.55;60.99
81196;BME280;70671;43.888;-79.394;2023-11-21T01:29:49;100590.69;;;-2.53;61.36
81196;BME280;70671;43.888;-79.394;2023-11-21T01:32:19;100587.72;;;-2.52;61.36
81196;BME280;70671;43.888;-79.394;2023-11-21T01:34:44;100590.53;;;-2.57;61.41
81196;BME280;70671;43.888;-79.394;2023-11-21T01:37:10;100585.34;;;-2.53;62.29
81196;BME280;70671;43.888;-79.394;2023-11-21T01:39:37;100576.06;;;-2.56;62.32
81196;BME280;70671;43.888;-79.394;2023-11-21T01:42:05;100570.25;;;-2.58;62.20
81196;BME280;70671;43.888;-79.394;2023-11-21T01:44:31;100564.22;;;-2.55;62.12
81196;BME280;70671;43.888;-79.394;2023-11-21T01:46:57;100556.03;;;-2.49;62.20
81196;BME280;70671;43.888;-79.394;2023-11-21T01:49:23;100562.81;;;-2.52;62.57
81196;BME280;70671;43.888;-79.394;2023-11-21T01:51:50;100557.31;;;-2.56;62.45
81196;BME280;70671;43.888;-79.394;2023-11-21T01:54:18;100559.66;;;-2.45;62.29
81196;BME280;70671;43.888;-79.394;2023-11-21T01:56:47;100560.00;;;-2.56;62.28
81196;BME280;70671;43.888;-79.394;2023-11-21T01:59:20;100576.34;;;-2.48;61.85
81196;BME280;70671;43.888;-79.394;2023-11-21T02:01:47;100571.44;;;-2.46;62.23
81196;BME280;70671;43.888;-79.394;2023-11-21T02:04:13;100576.34;;;-2.48;62.20
81196;BME280;70671;43.888;-79.394;2023-11-21T02:06:41;100580.63;;;-2.56;62.22
81196;BME280;70671;43.888;-79.394;2023-11-21T02:09:07;100579.22;;;-2.54;62.66
81196;BME280;70671;43.888;-79.394;2023-11-21T02:11:34;100578.75;;;-2.56;62.04
81196;BME280;70671;43.888;-79.394;2023-11-21T02:14:00;100586.13;;;-2.53;62.20
81196;BME280;70671;43.888;-79.394;2023-11-21T02:16:27;100599.19;;;-2.51;62.72
81196;BME280;70671;43.888;-79.394;2023-11-21T02:18:56;100613.56;;;-2.56;62.31
81196;BME280;70671;43.888;-79.394;2023-11-21T02:21:23;100616.53;;;-2.57;62.46
81196;BME280;70671;43.888;-79.394;2023-11-21T02:23:50;100609.75;;;-2.55;62.10
81196;BME280;70671;43.888;-79.394;2023-11-21T02:26:17;100603.47;;;-2.59;62.40
81196;BME280;70671;43.888;-79.394;2023-11-21T02:28:42;100585.69;;;-2.63;62.24
81196;BME280;70671;43.888;-79.394;2023-11-21T02:31:08;100598.72;;;-2.62;61.58
81196;BME280;70671;43.888;-79.394;2023-11-21T02:33:34;100584.25;;;-2.61;61.95
81196;BME280;70671;43.888;-79.394;2023-11-21T02:36:01;100581.59;;;-2.69;62.70
81196;BME280;70671;43.888;-79.394;2023-11-21T02:38:27;100582.53;;;-2.65;62.19
81196;BME280;70671;43.888;-79.394;2023-11-21T02:40:53;100566.94;;;-2.72;61.86
81196;BME280;70671;43.888;-79.394;2023-11-21T02:43:19;100569.34;;;-2.79;62.22
81196;BME280;70671;43.888;-79.394;2023-11-21T02:45:45;100580.38;;;-2.80;62.63
81196;BME280;70671;43.888;-79.394;2023-11-21T02:48:11;100588.22;;;-2.75;61.84
81196;BME280;70671;43.888;-79.394;2023-11-21T02:50:37;100588.09;;;-2.79;62.09
81196;BME280;70671;43.888;-79.394;2023-11-21T02:53:04;100591.84;;;-2.80;62.40
81196;BME280;70671;43.888;-79.394;2023-11-21T02:55:31;100594.06;;;-2.82;62.14
81196;BME280;70671;43.888;-79.394;2023-11-21T02:58:01;100581.78;;;-2.83;61.81
81196;BME280;70671;43.888;-79.394;2023-11-21T03:00:27;100578.66;;;-2.85;62.46
81196;BME280;70671;43.888;-79.394;2023-11-21T03:02:55;100579.28;;;-2.88;62.23
81196;BME280;70671;43.888;-79.394;2023-11-21T03:05:21;100587.16;;;-2.91;61.43
81196;BME280;70671;43.888;-79.394;2023-11-21T03:07:47;100597.06;;;-2.92;62.10
81196;BME280;70671;43.888;-79.394;2023-11-21T03:10:13;100583.41;;;-2.99;61.91
81196;BME280;70671;43.888;-79.394;2023-11-21T03:12:39;100567.34;;;-2.99;62.02
81196;BME280;70671;43.888;-79.394;2023-11-21T03:15:06;100559.94;;;-3.02;62.00
81196;BME280;70671;43.888;-79.394;2023-11-21T03:17:33;100540.75;;;-3.04;61.43
81196;BME280;70671;43.888;-79.394;2023-11-21T03:20:02;100529.44;;;-3.09;62.09
81196;BME280;70671;43.888;-79.394;2023-11-21T03:22:29;100522.03;;;-3.12;62.13
81196;BME280;70671;43.888;-79.394;2023-11-21T03:24:55;100508.81;;;-3.09;62.55
81196;BME280;70671;43.888;-79.394;2023-11-21T03:27:21;100508.94;;;-3.05;61.67
81196;BME280;70671;43.888;-79.394;2023-11-21T03:29:48;100508.03;;;-3.09;61.64
81196;BME280;70671;43.888;-79.394;2023-11-21T03:32:14;100498.38;;;-3.02;62.02
81196;BME280;70671;43.888;-79.394;2023-11-21T03:34:57;100482.81;;;-3.08;61.35
81196;BME280;70671;43.888;-79.394;2023-11-21T03:37:23;100505.03;;;-3.08;61.35
81196;BME280;70671;43.888;-79.394;2023-11-21T03:39:50;100508.81;;;-3.09;61.68
81196;BME280;70671;43.888;-79.394;2023-11-21T03:42:17;100509.44;;;-3.12;61.63
81196;BME280;70671;43.888;-79.394;2023-11-21T03:44:43;100504.88;;;-3.11;61.49
81196;BME280;70671;43.888;-79.394;2023-11-21T03:47:09;100495.59;;;-3.14;61.88
81196;BME280;70671;43.888;-79.394;2023-11-21T03:49:35;100511.03;;;-3.11;61.94
81196;BME280;70671;43.888;-79.394;2023-11-21T03:52:00;100522.19;;;-3.09;62.03
81196;BME280;70671;43.888;-79.394;2023-11-21T03:54:28;100527.69;;;-3.14;62.13
81196;BME280;70671;43.888;-79.394;2023-11-21T03:56:53;100524.69;;;-3.12;62.38
81196;BME280;70671;43.888;-79.394;2023-11-21T03:59:19;100525.03;;;-3.14;62.06
81196;BME280;70671;43.888;-79.394;2023-11-21T04:01:45;100526.28;;;-3.20;62.20
81196;BME280;70671;43.888;-79.394;2023-11-21T04:04:11;100532.09;;;-3.18;63.04
81196;BME280;70671;43.888;-79.394;2023-11-21T04:06:37;100538.88;;;-3.20;62.58
81196;BME280;70671;43.888;-79.394;2023-11-21T04:09:04;100533.38;;;-3.24;62.72
81196;BME280;70671;43.888;-79.394;2023-11-21T04:11:32;100533.38;;;-3.24;63.56
81196;BME280;70671;43.888;-79.394;2023-11-21T04:13:59;100532.75;;;-3.21;63.47
81196;BME280;70671;43.888;-79.394;2023-11-21T04:16:25;100537.59;;;-3.23;63.04
81196;BME280;70671;43.888;-79.394;2023-11-21T04:18:51;100534.63;;;-3.21;62.63
81196;BME280;70671;43.888;-79.394;2023-11-21T04:21:17;100527.22;;;-3.24;63.20
81196;BME280;70671;43.888;-79.394;2023-11-21T04:23:43;100520.94;;;-3.20;63.80
81196;BME280;70671;43.888;-79.394;2023-11-21T04:26:09;100514.97;;;-3.17;63.71
81196;BME280;70671;43.888;-79.394;2023-11-21T04:28:35;100523.28;;;-3.10;63.06
81196;BME280;70671;43.888;-79.394;2023-11-21T04:31:01;100525.63;;;-3.08;64.15
81196;BME280;70671;43.888;-79.394;2023-11-21T04:33:27;100545.16;;;-3.08;64.25
81196;BME280;70671;43.888;-79.394;2023-11-21T04:35:54;100553.50;;;-3.01;63.95
81196;BME280;70671;43.888;-79.394;2023-11-21T04:38:20;100557.56;;;-2.95;64.37
81196;BME280;70671;43.888;-79.394;2023-11-21T04:40:46;100551.09;;;-2.94;63.97
81196;BME280;70671;43.888;-79.394;2023-11-21T04:43:12;100555.66;;;-2.86;63.91
81196;BME280;70671;43.888;-79.394;2023-11-21T04:45:38;100560.19;;;-2.78;63.98
81196;BME280;70671;43.888;-79.394;2023-11-21T04:48:04;100549.44;;;-2.61;63.88
81196;BME280;70671;43.888;-79.394;2023-11-21T04:50:32;100529.25;;;-2.49;63.49
81196;BME280;70671;43.888;-79.394;2023-11-21T04:52:58;100530.00;;;-2.40;63.45
81196;BME280;70671;43.888;-79.394;2023-11-21T04:55:24;100541.94;;;-2.29;62.84
81196;BME280;70671;43.888;-79.394;2023-11-21T04:57:50;100539.97;;;-2.20;63.09
81196;BME280;70671;43.888;-79.394;2023-11-21T05:00:16;100549.13;;;-2.21;62.93
81196;BME280;70671;43.888;-79.394;2023-11-21T05:02:42;100554.34;;;-2.25;62.70
81196;BME280;70671;43.888;-79.394;2023-11-21T05:05:10;100564.28;;;-2.25;63.12
81196;BME280;70671;43.888;-79.394;2023-11-21T05:07:36;100575.28;;;-2.18;63.03
81196;BME280;70671;43.888;-79.394;2023-11-21T05:10:05;100572.13;;;-2.20;63.30
81196;BME280;70671;43.888;-79.394;2023-11-21T05:12:34;100559.53;;;-2.20;63.20
81196;BME280;70671;43.888;-79.394;2023-11-21T05:15:04;100542.53;;;-2.24;63.24
81196;BME280;70671;43.888;-79.394;2023-11-21T05:17:36;100531.47;;;-2.22;64.01
81196;BME280;70671;43.888;-79.394;2023-11-21T05:20:03;100499.97;;;-2.25;64.62
81196;BME280;70671;43.888;-79.394;2023-11-21T05:22:30;100474.75;;;-2.24;64.54
81196;BME280;70671;43.888;-79.394;2023-11-21T05:24:56;100460.72;;;-2.21;64.37
81196;BME280;70671;43.888;-79.394;2023-11-21T05:27:22;100453.13;;;-2.19;64.91
81196;BME280;70671;43.888;-79.394;2023-11-21T05:29:48;100460.72;;;-2.21;65.78
81196;BME280;70671;43.888;-79.394;2023-11-21T05:32:14;100465.75;;;-2.20;65.29
81196;BME280;70671;43.888;-79.394;2023-11-21T05:34:40;100467.00;;;-2.17;65.64
81196;BME280;70671;43.888;-79.394;2023-11-21T05:37:06;100474.81;;;-2.12;65.51
81196;BME280;70671;43.888;-79.394;2023-11-21T05:39:32;100462.69;;;-2.10;65.83
81196;BME280;70671;43.888;-79.394;2023-11-21T05:41:58;100462.34;;;-2.08;65.51
81196;BME280;70671;43.888;-79.394;2023-11-21T05:44:25;100458.13;;;-2.09;65.88
81196;BME280;70671;43.888;-79.394;2023-11-21T05:46:51;100454.91;;;-2.03;66.22
81196;BME280;70671;43.888;-79.394;2023-11-21T05:49:17;100435.09;;;-2.10;65.83
81196;BME280;70671;43.888;-79.394;2023-11-21T05:51:47;100423.72;;;-2.07;66.24
81196;BME280;70671;43.888;-79.394;2023-11-21T05:54:13;100400.00;;;-2.17;66.50
81196;BME280;70671;43.888;-79.394;2023-11-21T05:56:39;100418.03;;;-2.06;67.35
81196;BME280;70671;43.888;-79.394;2023-11-21T05:59:05;100418.16;;;-2.02;67.67
81196;BME280;70671;43.888;-79.394;2023-11-21T06:01:32;100421.28;;;-2.00;68.03
81196;BME280;70671;43.888;-79.394;2023-11-21T06:03:58;100418.16;;;-2.02;68.17
81196;BME280;70671;43.888;-79.394;2023-11-21T06:06:24;100411.59;;;-2.05;68.47
81196;BME280;70671;43.888;-79.394;2023-11-21T06:08:51;100393.34;;;-2.11;68.89
81196;BME280;70671;43.888;-79.394;2023-11-21T06:11:17;100404.56;;;-1.97;68.59
81196;BME280;70671;43.888;-79.394;2023-11-21T06:13:44;100399.66;;;-1.95;68.67
81196;BME280;70671;43.888;-79.394;2023-11-21T06:16:10;100395.16;;;-2.03;68.64
81196;BME280;70671;43.888;-79.394;2023-11-21T06:18:36;100405.56;;;-2.02;68.79
81196;BME280;70671;43.888;-79.394;2023-11-21T06:21:02;100387.00;;;-2.07;68.55
81196;BME280;70671;43.888;-79.394;2023-11-21T06:23:28;100403.22;;;-2.03;68.56
81196;BME280;70671;43.888;-79.394;2023-11-21T06:25:54;100399.34;;;-2.14;68.90
81196;BME280;70671;43.888;-79.394;2023-11-21T06:28:20;100399.16;;;-2.09;69.11
81196;BME280;70671;43.888;-79.394;2023-11-21T06:30:46;100390.66;;;-2.11;69.36
81196;BME280;70671;43.888;-79.394;2023-11-21T06:33:12;100362.88;;;-2.07;69.23
81196;BME280;70671;43.888;-79.394;2023-11-21T06:35:38;100368.09;;;-2.10;69.52
81196;BME280;70671;43.888;-79.394;2023-11-21T06:38:05;100362.94;;;-2.15;69.21
81196;BME280;70671;43.888;-79.394;2023-11-21T06:40:31;100358.56;;;-2.20;69.81
81196;BME280;70671;43.888;-79.394;2023-11-21T06:42:59;100357.78;;;-2.20;69.94
81196;BME280;70671;43.888;-79.394;2023-11-21T06:45:26;100337.66;;;-2.26;69.78
81196;BME280;70671;43.888;-79.394;2023-11-21T06:47:52;100316.22;;;-2.26;70.26
81196;BME280;70671;43.888;-79.394;2023-11-21T06:50:18;100293.31;;;-2.36;70.03
81196;BME280;70671;43.888;-79.394;2023-11-21T06:52:44;100289.84;;;-2.36;70.89
81196;BME280;70671;43.888;-79.394;2023-11-21T06:55:10;100285.59;;;-2.37;71.44
81196;BME280;70671;43.888;-79.394;2023-11-21T06:57:36;100282.03;;;-2.41;70.96
81196;BME280;70671;43.888;-79.394;2023-11-21T07:00:04;100275.28;;;-2.47;71.79
81196;BME280;70671;43.888;-79.394;2023-11-21T07:02:31;100277.31;;;-2.44;71.17
81196;BME280;70671;43.888;-79.394;2023-11-21T07:04:57;100271.03;;;-2.48;71.81
81196;BME280;70671;43.888;-79.394;2023-11-21T07:07:22;100285.69;;;-2.46;71.53
81196;BME280;70671;43.888;-79.394;2023-11-21T07:09:49;100295.59;;;-2.46;71.72
81196;BME280;70671;43.888;-79.394;2023-11-21T07:12:15;100285.16;;;-2.39;71.80
81196;BME280;70671;43.888;-79.394;2023-11-21T07:14:41;100271.84;;;-2.48;72.00
81196;BME280;70671;43.888;-79.394;2023-11-21T07:17:13;100271.94;;;-2.44;72.05
81196;BME280;70671;43.888;-79.394;2023-11-21T07:19:39;100262.38;;;-2.45;72.39
81196;BME280;70671;43.888;-79.394;2023-11-21T07:22:05;100242.25;;;-2.52;72.79
81196;BME280;70671;43.888;-79.394;2023-11-21T07:24:32;100229.44;;;-2.46;72.52
81196;BME280;70671;43.888;-79.394;2023-11-21T07:26:58;100220.16;;;-2.48;72.99
81196;BME280;70671;43.888;-79.394;2023-11-21T07:29:24;100218.16;;;-2.52;73.38
81196;BME280;70671;43.888;-79.394;2023-11-21T07:31:55;100227.28;;;-2.53;73.17
81196;BME280;70671;43.888;-79.394;2023-11-21T07:34:21;100237.34;;;-2.49;73.38
81196;BME280;70671;43.888;-79.394;2023-11-21T07:36:47;100245.06;;;-2.48;73.93
81196;BME280;70671;43.888;-79.394;2023-11-21T07:39:13;100241.13;;;-2.51;73.97
81196;BME280;70671;43.888;-79.394;2023-11-21T07:41:41;100233.94;;;-2.59;74.03
81196;BME280;70671;43.888;-79.394;2023-11-21T07:44:14;100232.72;;;-2.61;74.34
81196;BME280;70671;43.888;-79.394;2023-11-21T07:46:41;100230.81;;;-2.61;74.24
81196;BME280;70671;43.888;-79.394;2023-11-21T07:49:07;100226.09;;;-2.64;74.42
81196;BME280;70671;43.888;-79.394;2023-11-21T07:51:33;100218.41;;;-2.65;75.02
81196;BME280;70671;43.888;-79.394;2023-11-21T07:53:59;100217.63;;;-2.66;76.01
81196;BME280;70671;43.888;-79.394;2023-11-21T07:56:26;100219.19;;;-2.65;75.99
81196;BME280;70671;43.888;-79.394;2023-11-21T07:58:52;100216.84;;;-2.66;76.53
81196;BME280;70671;43.888;-79.394;2023-11-21T08:01:18;100210.03;;;-2.64;76.92
81196;BME280;70671;43.888;-79.394;2023-11-21T08:03:44;100211.28;;;-2.61;76.55
81196;BME280;70671;43.888;-79.394;2023-11-21T08:06:10;100208.94;;;-2.63;76.70
81196;BME280;70671;43.888;-79.394;2023-11-21T08:08:36;100191.75;;;-2.62;76.30
81196;BME280;70671;43.888;-79.394;2023-11-21T08:11:02;100180.41;;;-2.59;76.94
81196;BME280;70671;43.888;-79.394;2023-11-21T08:13:29;100171.91;;;-2.61;76.68
81196;BME280;70671;43.888;-79.394;2023-11-21T08:15:58;100171.13;;;-2.61;77.28
81196;BME280;70671;43.888;-79.394;2023-11-21T08:18:30;100167.66;;;-2.62;76.89
81196;BME280;70671;43.888;-79.394;2023-11-21T08:20:57;100167.13;;;-2.55;76.97
81196;BME280;70671;43.888;-79.394;2023-11-21T08:23:23;100155.97;;;-2.57;78.15
81196;BME280;70671;43.888;-79.394;2023-11-21T08:25:53;100150.75;;;-2.54;77.33
81196;BME280;70671;43.888;-79.394;2023-11-21T08:28:19;100152.97;;;-2.56;78.10
81196;BME280;70671;43.888;-79.394;2023-11-21T08:30:47;100148.84;;;-2.53;77.88
81196;BME280;70671;43.888;-79.394;2023-11-21T08:33:13;100143.81;;;-2.55;78.39
81196;BME280;70671;43.888;-79.394;2023-11-21T08:35:39;100140.81;;;-2.53;78.45
81196;BME280;70671;43.888;-79.394;2023-11-21T08:38:05;100126.66;;;-2.54;78.43
81196;BME280;70671;43.888;-79.394;2023-11-21T08:40:31;100114.16;;;-2.49;78.43
81196;BME280;70671;43.888;-79.394;2023-11-21T08:42:57;100112.84;;;-2.43;78.82
81196;BME280;70671;43.888;-79.394;2023-11-21T08:45:30;100091.97;;;-2.50;78.99
81196;BME280;70671;43.888;-79.394;2023-11-21T08:47:56;100087.50;;;-2.46;79.47
81196;BME280;70671;43.888;-79.394;2023-11-21T08:50:22;100075.09;;;-2.51;79.36
81196;BME280;70671;43.888;-79.394;2023-11-21T08:52:48;100074.66;;;-2.40;79.57
81196;BME280;70671;43.888;-79.394;2023-11-21T08:55:15;100061.16;;;-2.44;79.69
81196;BME280;70671;43.888;-79.394;2023-11-21T08:57:44;100045.44;;;-2.33;79.64
81196;BME280;70671;43.888;-79.394;2023-11-21T09:00:11;100033.69;;;-2.29;79.87
81196;BME280;70671;43.888;-79.394;2023-11-21T09:02:38;100031.38;;;-2.30;80.28
81196;BME280;70671;43.888;-79.394;2023-11-21T09:05:11;100011.28;;;-2.36;80.75
81196;BME280;70671;43.888;-79.394;2023-11-21T09:07:39;100011.72;;;-2.22;80.13
81196;BME280;70671;43.888;-79.394;2023-11-21T09:10:06;100006.25;;;-2.14;80.48
81196;BME280;70671;43.888;-79.394;2023-11-21T09:12:33;100000.78;;;-2.17;80.15
81196;BME280;70671;43.888;-79.394;2023-11-21T09:15:07;100002.91;;;-2.11;80.55
81196;BME280;70671;43.888;-79.394;2023-11-21T09:17:35;99990.63;;;-2.12;80.44
81196;BME280;70671;43.888;-79.394;2023-11-21T09:20:01;99993.19;;;-2.03;79.96
81196;BME280;70671;43.888;-79.394;2023-11-21T09:22:30;100005.00;;;-2.04;80.70
81196;BME280;70671;43.888;-79.394;2023-11-21T09:24:57;100017.06;;;-1.98;80.64
81196;BME280;70671;43.888;-79.394;2023-11-21T09:27:24;100005.00;;;-1.92;80.81
81196;BME280;70671;43.888;-79.394;2023-11-21T09:29:51;99986.00;;;-1.87;80.91
81196;BME280;70671;43.888;-79.394;2023-11-21T09:32:18;99984.09;;;-1.87;80.85
81196;BME280;70671;43.888;-79.394;2023-11-21T09:34:44;99995.81;;;-1.79;80.80
81196;BME280;70671;43.888;-79.394;2023-11-21T09:37:10;99997.81;;;-1.76;81.08
81196;BME280;70671;43.888;-79.394;2023-11-21T09:39:36;100000.16;;;-1.75;80.91
81196;BME280;70671;43.888;-79.394;2023-11-21T09:42:17;99997.47;;;-1.75;80.88
81196;BME280;70671;43.888;-79.394;2023-11-21T09:47:32;99984.94;;;-1.71;81.19
81196;BME280;70671;43.888;-79.394;2023-11-21T09:50:01;100008.38;;;-1.68;80.88
81196;BME280;70671;43.888;-79.394;2023-11-21T09:52:28;99972.06;;;-1.65;80.83
81196;BME280;70671;43.888;-79.394;2023-11-21T09:54:55;99961.34;;;-1.65;80.31
81196;BME280;70671;43.888;-79.394;2023-11-21T09:57:27;99968.28;;;-1.64;80.88
81196;BME280;70671;43.888;-79.394;2023-11-21T09:59:54;99955.19;;;-1.66;80.85
81196;BME280;70671;43.888;-79.394;2023-11-21T10:02:27;99939.66;;;-1.60;80.27
81196;BME280;70671;43.888;-79.394;2023-11-21T10:04:59;99927.38;;;-1.61;80.56
81196;BME280;70671;43.888;-79.394;2023-11-21T10:07:26;99927.72;;;-1.62;80.51
81196;BME280;70671;43.888;-79.394;2023-11-21T10:09:53;99904.59;;;-1.67;81.08
81196;BME280;70671;43.888;-79.394;2023-11-21T10:12:19;99892.94;;;-1.59;81.22
81196;BME280;70671;43.888;-79.394;2023-11-21T10:14:48;99895.31;;;-1.57;80.87
81196;BME280;70671;43.888;-79.394;2023-11-21T10:17:15;99898.06;;;-1.54;80.82
81196;BME280;70671;43.888;-79.394;2023-11-21T10:19:46;99887.25;;;-1.57;80.94
81196;BME280;70671;43.888;-79.394;2023-11-21T10:22:13;99881.28;;;-1.51;81.07
81196;BME280;70671;43.888;-79.394;2023-11-21T10:24:40;99878.44;;;-1.42;81.05
81196;BME280;70671;43.888;-79.394;2023-11-21T10:27:08;99880.00;;;-1.41;81.13
81196;BME280;70671;43.888;-79.394;2023-11-21T10:29:34;99874.47;;;-1.33;81.21
81196;BME280;70671;43.888;-79.394;2023-11-21T10:32:04;99865.53;;;-1.37;80.85
81196;BME280;70671;43.888;-79.394;2023-11-21T10:34:31;99858.78;;;-1.31;80.66
81196;BME280;70671;43.888;-79.394;2023-11-21T10:36:57;99851.88;;;-1.32;81.06
81196;BME280;70671;43.888;-79.394;2023-11-21T10:39:24;99842.03;;;-1.28;80.54
81196;BME280;70671;43.888;-79.394;2023-11-21T10:41:56;99832.50;;;-1.25;80.84
81196;BME280;70671;43.888;-79.394;2023-11-21T10:44:22;99830.69;;;-1.21;80.53
81196;BME280;70671;43.888;-79.394;2023-11-21T10:46:51;99815.97;;;-1.27;80.98
81196;BME280;70671;43.888;-79.394;2023-11-21T10:49:24;99796.84;;;-1.26;81.08
81196;BME280;70671;43.888;-79.394;2023-11-21T10:51:51;99811.19;;;-1.18;81.02
81196;BME280;70671;43.888;-79.394;2023-11-21T10:54:25;99787.84;;;-1.18;80.87
81196;BME280;70671;43.888;-79.394;2023-11-21T10:57:00;99797.03;;;-1.19;80.58
81196;BME280;70671;43.888;-79.394;2023-11-21T10:59:30;99794.00;;;-1.17;80.70
81196;BME280;70671;43.888;-79.394;2023-11-21T11:01:57;99781.78;;;-1.15;80.37
81196;BME280;70671;43.888;-79.394;2023-11-21T11:04:27;99782.34;;;-1.06;81.33
81196;BME280;70671;43.888;-79.394;2023-11-21T11:07:02;99777.78;;;-1.05;80.87
81196;BME280;70671;43.888;-79.394;2023-11-21T11:09:30;99781.75;;;-0.99;80.72
81196;BME280;70671;43.888;-79.394;2023-11-21T11:11:59;99777.59;;;-0.97;80.43
81196;BME280;70671;43.888;-79.394;2023-11-21T11:14:25;99765.47;;;-0.91;79.98
81196;BME280;70671;43.888;-79.394;2023-11-21T11:16:54;99774.63;;;-0.92;79.92
81196;BME280;70671;43.888;-79.394;2023-11-21T11:19:23;99774.00;;;-0.85;79.69
81196;BME280;70671;43.888;-79.394;2023-11-21T11:22:08;99771.69;;;-0.87;79.92
81196;BME280;70671;43.888;-79.394;2023-11-21T11:33:07;99763.66;;;-0.29;77.42
81196;BME280;70671;43.888;-79.394;2023-11-21T11:38:23;99766.84;;;0.18;74.82
81196;BME280;70671;43.888;-79.394;2023-11-21T11:40:52;99766.69;;;0.53;72.93
81196;BME280;70671;43.888;-79.394;2023-11-21T11:43:25;99752.72;;;0.70;71.93
81196;BME280;70671;43.888;-79.394;2023-11-21T11:45:55;99757.34;;;0.96;70.65
81196;BME280;70671;43.888;-79.394;2023-11-21T11:48:22;99742.97;;;1.14;70.18
81196;BME280;70671;43.888;-79.394;2023-11-21T11:53:43;99709.03;;;1.39;69.08
81196;BME280;70671;43.888;-79.394;2023-11-21T11:56:29;99691.00;;;1.43;68.97
81196;BME280;70671;43.888;-79.394;2023-11-21T11:59:03;99687.72;;;1.60;68.49
81196;BME280;70671;43.888;-79.394;2023-11-21T12:01:31;99692.69;;;1.55;68.20
81196;BME280;70671;43.888;-79.394;2023-11-21T12:07:00;99708.22;;;1.68;67.54
81196;BME280;70671;43.888;-79.394;2023-11-21T12:09:29;99712.06;;;1.67;67.29
81196;BME280;70671;43.888;-79.394;2023-11-21T12:11:57;99727.94;;;1.76;67.15
81196;BME280;70671;43.888;-79.394;2023-11-21T12:14:23;99738.81;;;1.83;67.25
81196;BME280;70671;43.888;-79.394;2023-11-21T12:16:49;99740.72;;;1.83;67.13
81196;BME280;70671;43.888;-79.394;2023-11-21T12:19:15;99748.84;;;1.86;67.15
81196;BME280;70671;43.888;-79.394;2023-11-21T12:21:41;99746.31;;;2.00;66.53
81196;BME280;70671;43.888;-79.394;2023-11-21T12:24:08;99750.03;;;1.89;67.03
81196;BME280;70671;43.888;-79.394;2023-11-21T12:26:40;99753.91;;;1.91;66.59
81196;BME280;70671;43.888;-79.394;2023-11-21T12:29:06;99742.44;;;1.98;66.17
81196;BME280;70671;43.888;-79.394;2023-11-21T12:31:34;99735.56;;;2.04;66.10
81196;BME280;70671;43.888;-79.394;2023-11-21T12:34:03;99730.28;;;2.14;65.42
81196;BME280;70671;43.888;-79.394;2023-11-21T12:36:30;99733.72;;;2.15;65.17
81196;BME280;70671;43.888;-79.394;2023-11-21T12:38:56;99719.09;;;2.12;64.88
81196;BME280;70671;43.888;-79.394;2023-11-21T12:41:22;99706.75;;;2.15;63.74
81196;BME280;70671;43.888;-79.394;2023-11-21T12:43:48;99701.44;;;2.25;62.95
81196;BME280;70671;43.888;-79.394;2023-11-21T12:46:15;99689.16;;;2.31;63.31
81196;BME280;70671;43.888;-79.394;2023-11-21T12:48:44;99671.81;;;2.29;62.69
81196;BME280;70671;43.888;-79.394;2023-11-21T12:51:12;99668.38;;;2.35;62.57
81196;BME280;70671;43.888;-79.394;2023-11-21T12:53:40;99661.53;;;2.45;62.90